Time;durP1;ratioP1;P1;durP2;ratioP2;P2;SDS_P1;SDS_P2;PMS_P1;PMS_P2;Temp;Humidity;BMP_temperature;BMP_pressure;BME280_temperature;BME280_humidity;BME280_pressure;Samples;Min_cycle;Max_cycle;Signal;HPM_P1;HPM_P2
2023/02/10 00:00:52;;;;;;;22.35;9.65;;;;;;;;;;5040285;28;20046;-80
2023/02/10 00:03:19;;;;;;;25.55;8.90;;;;;;;;;;5037542;28;20050;-78
2023/02/10 00:05:45;;;;;;;30.73;9.30;;;;;;;;;;5031933;28;20124;-80
2023/02/10 00:08:12;;;;;;;27.30;9.00;;;;;;;;;;5036916;28;20054;-79
2023/02/10 00:10:38;;;;;;;23.42;8.43;;;;;;;;;;5038188;28;20060;-79
2023/02/10 00:13:04;;;;;;;21.80;8.98;;;;;;;;;;5036573;28;20058;-79
2023/02/10 00:15:31;;;;;;;25.23;9.10;;;;;;;;;;5040635;28;20053;-77
2023/02/10 00:17:58;;;;;;;23.05;9.18;;;;;;;;;;5040324;28;20140;-81
2023/02/10 00:20:24;;;;;;;25.48;9.77;;;;;;;;;;5045164;28;20050;-79
2023/02/10 00:22:51;;;;;;;19.02;8.32;;;;;;;;;;5042355;28;20041;-81
2023/02/10 00:25:17;;;;;;;22.60;9.23;;;;;;;;;;5040923;28;20132;-78
2023/02/10 00:27:43;;;;;;;25.60;9.45;;;;;;;;;;5032317;28;20508;-80
2023/02/10 00:30:10;;;;;;;29.50;9.93;;;;;;;;;;5015933;28;20053;-81
2023/02/10 00:32:40;;;;;;;21.38;8.63;;;;;;;;;;5013791;28;20083;-80
2023/02/10 00:35:07;;;;;;;23.42;9.48;;;;;;;;;;5034038;28;20067;-79
2023/02/10 00:37:33;;;;;;;25.25;9.13;;;;;;;;;;5032845;28;20140;-80
2023/02/10 00:40:00;;;;;;;25.90;9.65;;;;;;;;;;5033688;28;20049;-81
2023/02/10 00:42:26;;;;;;;27.38;10.25;;;;;;;;;;5040348;28;20556;-78
2023/02/10 00:44:53;;;;;;;22.35;9.50;;;;;;;;;;5036488;28;20046;-81
2023/02/10 00:47:19;;;;;;;20.33;9.75;;;;;;;;;;5031244;28;20378;-79
2023/02/10 00:49:46;;;;;;;26.25;10.55;;;;;;;;;;5035721;28;20091;-79
2023/02/10 00:52:12;;;;;;;24.83;9.70;;;;;;;;;;5038675;28;20054;-78
2023/02/10 00:54:38;;;;;;;29.30;10.15;;;;;;;;;;5030334;28;20132;-79
2023/02/10 00:57:05;;;;;;;27.58;10.18;;;;;;;;;;5029588;28;20326;-79
2023/02/10 00:59:31;;;;;;;27.52;10.57;;;;;;;;;;5030666;28;20041;-80
2023/02/10 01:01:57;;;;;;;25.95;10.25;;;;;;;;;;5030484;28;20056;-78
2023/02/10 01:04:24;;;;;;;27.92;10.75;;;;;;;;;;5030758;28;20053;-80
2023/02/10 01:06:50;;;;;;;26.27;10.07;;;;;;;;;;5031510;28;20124;-80
2023/02/10 01:09:17;;;;;;;26.10;10.52;;;;;;;;;;5013483;28;20049;-80
2023/02/10 01:11:44;;;;;;;28.42;10.55;;;;;;;;;;5032208;28;20049;-80
2023/02/10 01:14:10;;;;;;;28.52;10.57;;;;;;;;;;5031945;28;20050;-78
2023/02/10 01:16:36;;;;;;;25.88;11.13;;;;;;;;;;5030295;28;20052;-79
2023/02/10 01:19:03;;;;;;;25.33;10.18;;;;;;;;;;5030937;28;20115;-78
2023/02/10 01:21:30;;;;;;;26.42;11.23;;;;;;;;;;5031274;28;20523;-78
2023/02/10 01:23:57;;;;;;;28.75;11.18;;;;;;;;;;5029931;28;20049;-79
2023/02/10 01:26:24;;;;;;;30.15;11.30;;;;;;;;;;5030363;28;20145;-79
2023/02/10 01:28:50;;;;;;;29.25;11.30;;;;;;;;;;5030937;28;20072;-80
2023/02/10 01:31:18;;;;;;;26.27;11.07;;;;;;;;;;5030972;28;20059;-80
2023/02/10 01:33:45;;;;;;;29.92;11.18;;;;;;;;;;5030183;28;20480;-80
2023/02/10 01:36:13;;;;;;;27.30;10.93;;;;;;;;;;5030869;28;20054;-81
2023/02/10 01:38:40;;;;;;;28.85;11.85;;;;;;;;;;5029685;28;20713;-80
2023/02/10 01:41:06;;;;;;;29.45;11.68;;;;;;;;;;5031684;28;20478;-79
2023/02/10 01:43:51;;;;;;;30.35;11.68;;;;;;;;;;5030896;28;20050;-79
2023/02/10 01:46:18;;;;;;;30.40;11.43;;;;;;;;;;5012387;28;20072;-78
2023/02/10 01:48:44;;;;;;;29.85;11.95;;;;;;;;;;5029570;28;20117;-80
2023/02/10 01:51:11;;;;;;;29.98;11.00;;;;;;;;;;5031709;28;20317;-78
2023/02/10 01:53:38;;;;;;;29.40;11.95;;;;;;;;;;5031514;28;20513;-80
2023/02/10 01:56:04;;;;;;;29.88;11.15;;;;;;;;;;5031648;28;20275;-78
2023/02/10 01:58:32;;;;;;;30.85;11.23;;;;;;;;;;5031042;28;20052;-80
2023/02/10 02:00:59;;;;;;;29.95;11.27;;;;;;;;;;5013777;28;20046;-79
2023/02/10 02:03:26;;;;;;;28.42;11.93;;;;;;;;;;5029040;28;20045;-80
2023/02/10 02:05:52;;;;;;;30.02;12.05;;;;;;;;;;5013889;28;20074;-80
2023/02/10 02:08:21;;;;;;;29.45;11.15;;;;;;;;;;5028213;28;20429;-79
2023/02/10 02:10:51;;;;;;;31.45;11.52;;;;;;;;;;5029676;28;20446;-81
2023/02/10 02:13:25;;;;;;;34.30;12.55;;;;;;;;;;5029116;28;20053;-79
2023/02/10 02:15:57;;;;;;;33.53;12.48;;;;;;;;;;5029308;28;20472;-78
2023/02/10 02:18:36;;;;;;;31.17;11.43;;;;;;;;;;5028032;28;20048;-78
2023/02/10 02:21:02;;;;;;;32.13;12.45;;;;;;;;;;5030030;28;20052;-79
2023/02/10 02:23:44;;;;;;;30.08;12.27;;;;;;;;;;5028012;28;20045;-79
2023/02/10 02:26:22;;;;;;;36.63;12.68;;;;;;;;;;5028809;28;20045;-80
2023/02/10 02:29:07;;;;;;;30.30;12.07;;;;;;;;;;5012980;28;20064;-81
2023/02/10 02:31:34;;;;;;;32.03;12.10;;;;;;;;;;5011736;28;20061;-80
2023/02/10 02:34:19;;;;;;;35.05;12.80;;;;;;;;;;5011591;28;20060;-79
2023/02/10 02:36:54;;;;;;;32.17;12.85;;;;;;;;;;5027390;28;20509;-77
2023/02/10 02:39:21;;;;;;;30.75;12.05;;;;;;;;;;5011345;28;20037;-81
2023/02/10 02:42:02;;;;;;;32.88;12.45;;;;;;;;;;5028175;28;20057;-77
2023/02/10 02:44:28;;;;;;;38.65;12.57;;;;;;;;;;5026309;28;20076;-78
2023/02/10 02:47:00;;;;;;;35.22;12.48;;;;;;;;;;5009348;28;20544;-78
2023/02/10 02:49:55;;;;;;;26.63;12.10;;;;;;;;;;5029017;28;20045;-80
2023/02/10 02:52:26;;;;;;;35.70;13.13;;;;;;;;;;5020107;28;20060;-81
2023/02/10 02:55:19;;;;;;;31.77;12.40;;;;;;;;;;5029435;28;20050;-78
2023/02/10 02:57:49;;;;;;;33.67;13.30;;;;;;;;;;5019968;28;20056;-81
2023/02/10 03:00:17;;;;;;;31.73;12.25;;;;;;;;;;5048715;28;20071;-80
2023/02/10 03:02:45;;;;;;;33.05;13.48;;;;;;;;;;5048387;28;20060;-80
2023/02/10 03:05:16;;;;;;;35.28;13.40;;;;;;;;;;5047916;28;20067;-80
2023/02/10 03:07:43;;;;;;;31.30;12.77;;;;;;;;;;5047445;28;20088;-82
2023/02/10 03:10:09;;;;;;;33.80;13.13;;;;;;;;;;5033740;28;20247;-79
2023/02/10 03:12:36;;;;;;;32.28;13.07;;;;;;;;;;5029528;28;20053;-80
2023/02/10 03:15:02;;;;;;;34.03;13.07;;;;;;;;;;5032546;28;20046;-78
2023/02/10 03:17:29;;;;;;;33.75;13.40;;;;;;;;;;5033916;28;20060;-79
2023/02/10 03:19:55;;;;;;;31.45;13.18;;;;;;;;;;5030868;28;20050;-79
2023/02/10 03:22:22;;;;;;;37.65;13.40;;;;;;;;;;5030732;28;20393;-81
2023/02/10 03:24:48;;;;;;;31.13;12.52;;;;;;;;;;5031141;28;20077;-81
2023/02/10 03:27:14;;;;;;;30.95;13.27;;;;;;;;;;5030652;28;20053;-81
2023/02/10 03:29:41;;;;;;;32.83;13.10;;;;;;;;;;5030573;28;20061;-79
2023/02/10 03:32:08;;;;;;;31.23;12.98;;;;;;;;;;5030273;28;20095;-80
2023/02/10 03:34:34;;;;;;;34.78;13.27;;;;;;;;;;5029722;28;20056;-79
2023/02/10 03:37:01;;;;;;;37.22;13.98;;;;;;;;;;5029716;28;20523;-79
2023/02/10 03:39:27;;;;;;;33.95;13.75;;;;;;;;;;5031972;28;20057;-81
2023/02/10 03:41:54;;;;;;;33.55;13.50;;;;;;;;;;5033879;28;20049;-78
2023/02/10 03:44:20;;;;;;;36.33;13.27;;;;;;;;;;5032766;28;20049;-81
2023/02/10 03:46:47;;;;;;;33.28;13.70;;;;;;;;;;5030746;28;20093;-80
2023/02/10 03:49:13;;;;;;;37.67;13.57;;;;;;;;;;5033050;28;20113;-80
2023/02/10 03:51:39;;;;;;;32.20;12.82;;;;;;;;;;5034400;28;20101;-79
2023/02/10 03:54:06;;;;;;;37.63;13.70;;;;;;;;;;5034069;28;20055;-79
2023/02/10 03:56:32;;;;;;;40.83;13.52;;;;;;;;;;5032777;28;20437;-79
2023/02/10 03:59:02;;;;;;;31.77;13.02;;;;;;;;;;5034036;28;20053;-79
2023/02/10 04:01:29;;;;;;;36.90;14.13;;;;;;;;;;5015236;28;20497;-80
2023/02/10 04:03:55;;;;;;;34.70;13.20;;;;;;;;;;5031579;28;20092;-80
2023/02/10 04:06:22;;;;;;;35.75;13.35;;;;;;;;;;5030628;28;20056;-77
2023/02/10 04:08:48;;;;;;;33.20;13.63;;;;;;;;;;5032897;28;20056;-80
2023/02/10 04:11:15;;;;;;;32.38;13.38;;;;;;;;;;5017767;28;20140;-80
2023/02/10 04:13:41;;;;;;;35.83;13.90;;;;;;;;;;5028372;28;20390;-79
2023/02/10 04:16:10;;;;;;;36.50;14.40;;;;;;;;;;5036190;28;20053;-78
2023/02/10 04:18:38;;;;;;;36.50;14.10;;;;;;;;;;5019214;28;20049;-80
2023/02/10 04:21:05;;;;;;;34.92;14.13;;;;;;;;;;5038761;28;20241;-78
2023/02/10 04:23:32;;;;;;;38.83;13.60;;;;;;;;;;5018293;28;20054;-79
2023/02/10 04:25:59;;;;;;;35.90;13.93;;;;;;;;;;5039289;28;20049;-79
2023/02/10 04:28:25;;;;;;;36.33;14.57;;;;;;;;;;5039700;28;20049;-80
2023/02/10 04:30:56;;;;;;;38.35;14.55;;;;;;;;;;5039753;28;20049;-78
2023/02/10 04:33:24;;;;;;;44.53;17.05;;;;;;;;;;5054014;28;20061;-78
2023/02/10 04:35:52;;;;;;;39.22;15.77;;;;;;;;;;5044541;28;20052;-79
2023/02/10 04:38:19;;;;;;;45.08;16.58;;;;;;;;;;5044975;28;20056;-78
2023/02/10 04:40:46;;;;;;;40.70;16.90;;;;;;;;;;5047693;28;20053;-80
2023/02/10 04:43:13;;;;;;;39.95;16.05;;;;;;;;;;5041802;28;20482;-80
2023/02/10 04:45:39;;;;;;;38.63;16.88;;;;;;;;;;5041274;28;20109;-79
2023/02/10 04:48:06;;;;;;;42.40;16.85;;;;;;;;;;5038890;28;20064;-78
2023/02/10 04:50:32;;;;;;;41.28;16.33;;;;;;;;;;5035431;28;20046;-78
2023/02/10 04:52:59;;;;;;;41.33;16.92;;;;;;;;;;5035673;28;20080;-78
2023/02/10 04:55:25;;;;;;;45.83;17.85;;;;;;;;;;5034353;28;20386;-78
2023/02/10 04:57:52;;;;;;;44.90;18.77;;;;;;;;;;5031752;28;20069;-77
2023/02/10 05:00:19;;;;;;;46.40;17.52;;;;;;;;;;5031636;28;20569;-79
2023/02/10 05:02:45;;;;;;;50.40;19.02;;;;;;;;;;5032349;28;20331;-78
2023/02/10 05:05:12;;;;;;;50.08;18.63;;;;;;;;;;5016041;28;20041;-79
2023/02/10 05:07:38;;;;;;;51.22;19.83;;;;;;;;;;5032975;28;20049;-79
2023/02/10 05:10:05;;;;;;;55.60;20.45;;;;;;;;;;5032929;28;20055;-79
2023/02/10 05:12:31;;;;;;;49.65;21.60;;;;;;;;;;5032658;28;20132;-79
2023/02/10 05:14:58;;;;;;;53.83;21.75;;;;;;;;;;5015288;28;20061;-78
2023/02/10 05:17:24;;;;;;;58.88;21.92;;;;;;;;;;5013101;28;20084;-79
2023/02/10 05:19:50;;;;;;;56.50;21.92;;;;;;;;;;5030133;28;20045;-79
2023/02/10 05:22:17;;;;;;;59.65;21.83;;;;;;;;;;5031909;28;20045;-80
2023/02/10 05:24:43;;;;;;;56.13;22.23;;;;;;;;;;5031005;28;20090;-76
2023/02/10 05:27:10;;;;;;;60.08;23.85;;;;;;;;;;5030713;28;20061;-75
2023/02/10 05:29:36;;;;;;;58.63;22.35;;;;;;;;;;5033705;28;20045;-79
2023/02/10 05:32:02;;;;;;;53.08;21.38;;;;;;;;;;5032492;28;20121;-80
2023/02/10 05:34:29;;;;;;;55.97;21.75;;;;;;;;;;5032819;28;20136;-80
2023/02/10 05:36:55;;;;;;;55.65;21.35;;;;;;;;;;5031982;28;20053;-80
2023/02/10 05:39:25;;;;;;;57.65;21.73;;;;;;;;;;5032550;28;20055;-80
2023/02/10 05:41:53;;;;;;;50.97;21.38;;;;;;;;;;5032822;28;20136;-80
2023/02/10 05:44:20;;;;;;;55.50;22.88;;;;;;;;;;5035671;28;20478;-81
2023/02/10 05:46:46;;;;;;;57.00;21.30;;;;;;;;;;5034800;28;20056;-80
2023/02/10 05:49:13;;;;;;;56.08;20.65;;;;;;;;;;5016843;28;20056;-81
2023/02/10 05:51:39;;;;;;;49.53;19.65;;;;;;;;;;5037474;28;20142;-80
2023/02/10 05:54:06;;;;;;;51.72;20.17;;;;;;;;;;5034888;28;20053;-80
2023/02/10 05:56:33;;;;;;;51.05;20.10;;;;;;;;;;5032414;28;20053;-80
2023/02/10 05:58:59;;;;;;;46.70;19.15;;;;;;;;;;5033571;28;20109;-79
2023/02/10 06:01:26;;;;;;;46.92;19.60;;;;;;;;;;5033844;28;20060;-80
2023/02/10 06:03:52;;;;;;;51.70;19.92;;;;;;;;;;5033832;28;20056;-80
2023/02/10 06:06:19;;;;;;;51.95;19.77;;;;;;;;;;5033771;28;20109;-80
2023/02/10 06:08:45;;;;;;;49.85;20.58;;;;;;;;;;5032210;28;20049;-79
2023/02/10 06:11:12;;;;;;;52.38;19.98;;;;;;;;;;5016728;28;20405;-79
2023/02/10 06:13:39;;;;;;;49.30;19.95;;;;;;;;;;5033300;28;20049;-79
2023/02/10 06:16:06;;;;;;;54.10;20.75;;;;;;;;;;5034371;28;20077;-80
2023/02/10 06:18:32;;;;;;;48.08;19.52;;;;;;;;;;5037837;28;20079;-81
2023/02/10 06:21:00;;;;;;;58.65;21.65;;;;;;;;;;5039412;28;20050;-79
2023/02/10 06:23:27;;;;;;;53.28;19.65;;;;;;;;;;5020962;28;20072;-79
2023/02/10 06:25:54;;;;;;;51.30;21.65;;;;;;;;;;5042004;28;20041;-79
2023/02/10 06:28:21;;;;;;;58.53;21.67;;;;;;;;;;5035517;28;20042;-79
2023/02/10 06:30:48;;;;;;;56.13;21.60;;;;;;;;;;5028919;28;20072;-79
2023/02/10 06:33:14;;;;;;;57.83;21.73;;;;;;;;;;5028430;28;20049;-78
2023/02/10 06:35:41;;;;;;;54.30;21.88;;;;;;;;;;5028613;28;20053;-79
2023/02/10 06:38:07;;;;;;;58.55;20.83;;;;;;;;;;5027099;28;20050;-80
2023/02/10 06:40:34;;;;;;;61.28;22.83;;;;;;;;;;5028564;28;20191;-81
2023/02/10 06:43:03;;;;;;;57.15;22.20;;;;;;;;;;5035119;28;20140;-81
2023/02/10 06:45:29;;;;;;;59.13;22.90;;;;;;;;;;5037393;28;20111;-80
2023/02/10 06:47:56;;;;;;;57.17;22.50;;;;;;;;;;5036031;28;20173;-79
2023/02/10 06:50:22;;;;;;;59.65;23.17;;;;;;;;;;5037940;28;20567;-80
2023/02/10 06:52:49;;;;;;;63.75;23.25;;;;;;;;;;5031330;28;20521;-78
2023/02/10 06:55:15;;;;;;;62.38;23.02;;;;;;;;;;5027380;28;20421;-80
2023/02/10 06:57:42;;;;;;;61.60;23.48;;;;;;;;;;5027583;28;20060;-79
2023/02/10 07:00:12;;;;;;;61.03;23.13;;;;;;;;;;5029113;28;20057;-79
2023/02/10 07:02:39;;;;;;;60.65;23.30;;;;;;;;;;5028698;28;20140;-78
2023/02/10 07:05:07;;;;;;;56.47;23.35;;;;;;;;;;5022333;28;20620;-79
2023/02/10 07:07:34;;;;;;;60.10;23.15;;;;;;;;;;5011867;28;20093;-79
2023/02/10 07:10:00;;;;;;;59.97;24.13;;;;;;;;;;5012903;28;20084;-78
2023/02/10 07:12:27;;;;;;;62.88;23.58;;;;;;;;;;5017135;28;20057;-78
2023/02/10 07:14:53;;;;;;;59.85;23.27;;;;;;;;;;5016872;28;20124;-79
2023/02/10 07:17:20;;;;;;;59.35;23.65;;;;;;;;;;5034304;28;20056;-80
2023/02/10 07:19:46;;;;;;;68.35;23.73;;;;;;;;;;5034813;28;20050;-79
2023/02/10 07:22:13;;;;;;;60.08;23.77;;;;;;;;;;5034497;28;20128;-79
2023/02/10 07:24:39;;;;;;;65.13;23.10;;;;;;;;;;5034236;28;20136;-79
2023/02/10 07:27:06;;;;;;;61.47;23.67;;;;;;;;;;5034172;28;20045;-79
2023/02/10 07:29:32;;;;;;;63.80;23.52;;;;;;;;;;5036282;28;20155;-79
2023/02/10 07:31:59;;;;;;;61.45;24.23;;;;;;;;;;5035097;28;20053;-80
2023/02/10 07:34:26;;;;;;;66.93;24.92;;;;;;;;;;5033633;28;20109;-79
2023/02/10 07:36:55;;;;;;;71.15;25.38;;;;;;;;;;5033465;28;20592;-81
2023/02/10 07:39:22;;;;;;;59.30;24.55;;;;;;;;;;5033975;28;20064;-81
2023/02/10 07:41:49;;;;;;;66.00;25.50;;;;;;;;;;5034672;28;20045;-79
2023/02/10 07:44:16;;;;;;;63.45;24.75;;;;;;;;;;5051582;28;20366;-80
2023/02/10 07:46:43;;;;;;;61.47;24.80;;;;;;;;;;5055693;28;20554;-79
2023/02/10 07:49:09;;;;;;;70.75;26.08;;;;;;;;;;5048386;28;20049;-78
2023/02/10 07:51:36;;;;;;;67.50;25.65;;;;;;;;;;5034762;28;20045;-80
2023/02/10 07:54:02;;;;;;;66.25;25.17;;;;;;;;;;5033976;28;20045;-78
2023/02/10 07:56:29;;;;;;;66.05;25.70;;;;;;;;;;5032508;28;20101;-79
2023/02/10 07:58:55;;;;;;;76.65;27.80;;;;;;;;;;5033835;28;20047;-81
2023/02/10 08:01:22;;;;;;;73.63;27.05;;;;;;;;;;5034210;28;20056;-80
2023/02/10 08:03:48;;;;;;;66.80;25.83;;;;;;;;;;5032473;28;20111;-79
2023/02/10 08:06:19;;;;;;;71.57;28.00;;;;;;;;;;5045916;28;20045;-79
2023/02/10 08:08:46;;;;;;;73.15;26.75;;;;;;;;;;5053211;28;20055;-78
2023/02/10 08:11:12;;;;;;;79.47;28.50;;;;;;;;;;5035840;28;20067;-80
2023/02/10 08:13:39;;;;;;;75.68;27.10;;;;;;;;;;5050056;28;20224;-79
2023/02/10 08:16:07;;;;;;;71.38;26.17;;;;;;;;;;5031783;28;20057;-80
2023/02/10 08:18:34;;;;;;;76.47;27.88;;;;;;;;;;5031314;28;20057;-79
2023/02/10 08:21:01;;;;;;;77.72;27.98;;;;;;;;;;5015572;28;20056;-79
2023/02/10 08:23:27;;;;;;;75.90;27.08;;;;;;;;;;5032025;28;20045;-78
2023/02/10 08:25:54;;;;;;;75.13;28.83;;;;;;;;;;5016992;28;20054;-79
2023/02/10 08:28:20;;;;;;;73.30;27.92;;;;;;;;;;5032690;28;20045;-80
2023/02/10 08:30:47;;;;;;;76.97;28.40;;;;;;;;;;5032218;28;20060;-79
2023/02/10 08:33:13;;;;;;;72.10;27.35;;;;;;;;;;5033260;28;20049;-79
2023/02/10 08:35:40;;;;;;;71.75;26.83;;;;;;;;;;5032933;28;20085;-80
2023/02/10 08:38:08;;;;;;;72.15;27.58;;;;;;;;;;5029589;28;20548;-79
2023/02/10 08:40:35;;;;;;;77.05;28.63;;;;;;;;;;5026770;28;20045;-80
2023/02/10 08:43:01;;;;;;;70.97;28.30;;;;;;;;;;5055007;28;20109;-79
2023/02/10 08:45:28;;;;;;;70.03;27.00;;;;;;;;;;5049945;28;20041;-79
2023/02/10 08:47:54;;;;;;;73.35;28.08;;;;;;;;;;5051181;28;20056;-78
2023/02/10 08:50:21;;;;;;;78.68;29.55;;;;;;;;;;5036185;28;20092;-78
2023/02/10 08:52:47;;;;;;;76.05;29.08;;;;;;;;;;5031187;28;20053;-79
2023/02/10 08:55:14;;;;;;;81.10;29.60;;;;;;;;;;5032639;28;20059;-81
2023/02/10 08:57:40;;;;;;;80.05;30.17;;;;;;;;;;5031329;28;20088;-79
2023/02/10 09:00:07;;;;;;;71.50;28.50;;;;;;;;;;5031996;28;20092;-79
2023/02/10 09:02:35;;;;;;;75.65;27.92;;;;;;;;;;5054848;28;20456;-79
2023/02/10 09:05:02;;;;;;;76.70;28.27;;;;;;;;;;5054297;28;20139;-80
2023/02/10 09:07:36;;;;;;;73.93;29.25;;;;;;;;;;5033867;28;20141;-80
2023/02/10 09:10:02;;;;;;;75.40;28.25;;;;;;;;;;5035269;28;20113;-80
2023/02/10 09:12:29;;;;;;;73.80;27.48;;;;;;;;;;5033700;28;20067;-80
2023/02/10 09:14:55;;;;;;;76.63;28.08;;;;;;;;;;5034179;28;20064;-79
2023/02/10 09:17:22;;;;;;;75.35;28.45;;;;;;;;;;5031947;28;20049;-82
2023/02/10 09:19:48;;;;;;;74.72;28.08;;;;;;;;;;5032547;28;20041;-81
2023/02/10 09:22:16;;;;;;;74.60;25.23;;;;;;;;;;5032843;28;20184;-81
2023/02/10 09:24:46;;;;;;;61.60;24.45;;;;;;;;;;5031583;28;20124;-80
2023/02/10 09:27:12;;;;;;;66.10;25.60;;;;;;;;;;5032665;28;20050;-80
2023/02/10 09:29:39;;;;;;;66.85;25.90;;;;;;;;;;5034183;28;20145;-79
2023/02/10 09:32:06;;;;;;;67.60;25.95;;;;;;;;;;5033006;28;20183;-81
2023/02/10 09:34:32;;;;;;;68.15;25.75;;;;;;;;;;5029667;28;20612;-79
2023/02/10 09:37:01;;;;;;;68.85;26.38;;;;;;;;;;5028980;28;20049;-79
2023/02/10 09:39:28;;;;;;;57.80;22.50;;;;;;;;;;5030911;28;20049;-79
2023/02/10 09:41:57;;;;;;;68.18;24.40;;;;;;;;;;5031956;28;20059;-80
2023/02/10 09:44:30;;;;;;;61.88;24.02;;;;;;;;;;5031048;28;20053;-79
2023/02/10 09:47:05;;;;;;;65.53;23.70;;;;;;;;;;5029851;28;20091;-79
2023/02/10 09:49:32;;;;;;;65.90;25.42;;;;;;;;;;5029611;28;20049;-79
2023/02/10 09:52:05;;;;;;;62.92;24.55;;;;;;;;;;5030596;28;20058;-79
2023/02/10 09:54:33;;;;;;;61.33;23.73;;;;;;;;;;5032208;28;20107;-78
2023/02/10 09:57:12;;;;;;;63.03;24.90;;;;;;;;;;5032878;28;20069;-78
2023/02/10 09:59:40;;;;;;;58.83;22.98;;;;;;;;;;5035539;28;20080;-79
2023/02/10 10:02:24;;;;;;;59.88;23.60;;;;;;;;;;5034635;28;20184;-79
2023/02/10 10:04:50;;;;;;;56.35;22.55;;;;;;;;;;5037257;28;20061;-78
2023/02/10 10:07:17;;;;;;;67.80;25.75;;;;;;;;;;5054855;28;20059;-79
2023/02/10 10:09:45;;;;;;;60.70;23.90;;;;;;;;;;5036588;28;20053;-79
2023/02/10 10:12:15;;;;;;;66.43;25.27;;;;;;;;;;5038888;28;20079;-80
2023/02/10 10:14:43;;;;;;;67.40;25.77;;;;;;;;;;5041626;28;20045;-81
2023/02/10 10:17:09;;;;;;;61.03;24.70;;;;;;;;;;5051967;28;20072;-80
2023/02/10 10:19:49;;;;;;;61.78;25.30;;;;;;;;;;5066163;28;20552;-79
2023/02/10 10:22:16;;;;;;;63.60;25.65;;;;;;;;;;5047348;28;20045;-80
2023/02/10 10:24:51;;;;;;;63.10;25.13;;;;;;;;;;5058464;28;20473;-79
2023/02/10 10:27:17;;;;;;;;;;;;;;;;;;5051186;28;20060;-79
2023/02/10 10:29:44;;;;;;;50.17;21.30;;;;;;;;;;5035396;28;19936;-79
2023/02/10 10:32:37;;;;;;;52.33;22.83;;;;;;;;;;5033579;28;20056;-79
2023/02/10 10:35:11;;;;;;;54.05;21.85;;;;;;;;;;5032411;28;20140;-80
2023/02/10 10:37:38;;;;;;;53.47;23.38;;;;;;;;;;5049911;28;20095;-78
2023/02/10 10:40:05;;;;;;;48.25;22.75;;;;;;;;;;5054604;28;20632;-79
2023/02/10 10:42:46;;;;;;;47.45;22.83;;;;;;;;;;5036530;28;20068;-79
2023/02/10 10:45:12;;;;;;;55.22;23.80;;;;;;;;;;5050549;28;20049;-79
2023/02/10 10:47:47;;;;;;;53.97;24.10;;;;;;;;;;5053686;28;20106;-79
2023/02/10 10:50:18;;;;;;;51.88;23.35;;;;;;;;;;5040545;28;20073;-79
2023/02/10 10:52:50;;;;;;;51.92;23.52;;;;;;;;;;5033259;28;20068;-79
2023/02/10 10:55:23;;;;;;;49.22;22.17;;;;;;;;;;5036826;28;20076;-79
2023/02/10 10:57:50;;;;;;;55.22;23.80;;;;;;;;;;5036864;28;20061;-78
2023/02/10 11:00:28;;;;;;;62.88;23.63;;;;;;;;;;5035772;28;20050;-79
2023/02/10 11:02:59;;;;;;;60.75;22.92;;;;;;;;;;5014732;28;20049;-78
2023/02/10 11:05:28;;;;;;;60.20;24.42;;;;;;;;;;5014371;28;20084;-79
2023/02/10 11:07:57;;;;;;;53.03;21.77;;;;;;;;;;5031642;28;20099;-78
2023/02/10 11:10:26;;;;;;;53.50;22.95;;;;;;;;;;5033130;28;20057;-78
2023/02/10 11:12:53;;;;;;;52.13;20.90;;;;;;;;;;5011912;28;20108;-79
2023/02/10 11:15:26;;;;;;;53.42;21.95;;;;;;;;;;5029975;28;20053;-79
2023/02/10 11:17:53;;;;;;;53.10;21.33;;;;;;;;;;5032636;28;20164;-80
2023/02/10 11:20:24;;;;;;;56.15;23.35;;;;;;;;;;5038617;28;20141;-79
2023/02/10 11:23:11;;;;;;;58.20;22.13;;;;;;;;;;5029440;28;20060;-77
2023/02/10 11:25:37;;;;;;;58.88;21.88;;;;;;;;;;5032609;28;20045;-78
2023/02/10 11:28:06;;;;;;;55.28;21.95;;;;;;;;;;5028768;28;20048;-80
2023/02/10 11:30:34;;;;;;;52.50;21.55;;;;;;;;;;5033105;28;20119;-80
2023/02/10 11:33:01;;;;;;;56.75;21.98;;;;;;;;;;5032293;28;20146;-79
2023/02/10 11:35:30;;;;;;;57.83;21.08;;;;;;;;;;5033611;28;20191;-79
2023/02/10 11:37:59;;;;;;;52.45;21.77;;;;;;;;;;5013600;28;20947;-80
2023/02/10 11:40:27;;;;;;;53.67;22.17;;;;;;;;;;5031970;28;20049;-78
2023/02/10 11:42:56;;;;;;;54.88;21.85;;;;;;;;;;5031639;28;20520;-78
2023/02/10 11:45:24;;;;;;;55.47;21.88;;;;;;;;;;5031131;28;20059;-79
2023/02/10 11:48:00;;;;;;;54.80;23.38;;;;;;;;;;5030462;28;20135;-79
2023/02/10 11:50:29;;;;;;;57.17;21.65;;;;;;;;;;5032306;28;20045;-79
2023/02/10 11:52:55;;;;;;;55.58;22.10;;;;;;;;;;5031345;28;20050;-79
2023/02/10 11:55:25;;;;;;;58.05;21.35;;;;;;;;;;5033206;28;20248;-79
2023/02/10 12:00:49;;;;;;;48.60;20.20;;;;;;;;;;5034648;28;20833;-80
2023/02/10 12:03:34;;;;;;;50.85;21.02;;;;;;;;;;5031197;28;20076;-79
2023/02/10 12:06:15;;;;;;;50.83;20.50;;;;;;;;;;5030314;28;20041;-81
2023/02/10 12:08:54;;;;;;;53.08;21.48;;;;;;;;;;5012526;28;20060;-79
2023/02/10 12:11:41;;;;;;;50.20;21.13;;;;;;;;;;5014720;28;20049;-80
2023/02/10 12:14:20;;;;;;;53.25;21.17;;;;;;;;;;5040921;28;20045;-80
2023/02/10 12:17:22;;;;;;;49.25;20.38;;;;;;;;;;5031185;28;20065;-80
2023/02/10 12:20:02;;;;;;;55.15;21.27;;;;;;;;;;4941481;28;20067;-79
2023/02/10 12:22:29;;;;;;;53.50;21.10;;;;;;;;;;5017660;28;20049;-78
2023/02/10 12:25:12;;;;;;;55.45;21.45;;;;;;;;;;5012566;28;20046;-79
2023/02/10 12:27:44;;;;;;;57.05;20.45;;;;;;;;;;5029866;28;20095;-78
2023/02/10 12:30:28;;;;;;;49.00;21.38;;;;;;;;;;5012782;28;20061;-78
2023/02/10 12:33:01;;;;;;;45.92;19.10;;;;;;;;;;5030690;28;20057;-79
2023/02/10 12:35:33;;;;;;;41.15;18.58;;;;;;;;;;5032385;28;20092;-79
2023/02/10 12:38:03;;;;;;;46.95;19.58;;;;;;;;;;5028140;28;20160;-78
2023/02/10 12:40:49;;;;;;;42.85;18.23;;;;;;;;;;5030012;28;20085;-78
2023/02/10 12:43:28;;;;;;;38.85;17.77;;;;;;;;;;5014124;28;20084;-80
2023/02/10 12:46:04;;;;;;;41.15;17.30;;;;;;;;;;5033037;28;20079;-79
2023/02/10 12:48:30;;;;;;;45.92;19.33;;;;;;;;;;5031561;28;20084;-80
2023/02/10 12:51:00;;;;;;;46.03;19.15;;;;;;;;;;5028437;28;20054;-80
2023/02/10 12:53:32;;;;;;;41.83;18.65;;;;;;;;;;5032891;28;20056;-80
2023/02/10 12:56:01;;;;;;;39.05;18.10;;;;;;;;;;5031752;28;20092;-79
2023/02/10 12:58:32;;;;;;;42.97;19.23;;;;;;;;;;5030961;28;20072;-81
2023/02/10 13:01:05;;;;;;;41.55;18.75;;;;;;;;;;5030696;28;20049;-81
2023/02/10 13:03:34;;;;;;;43.83;17.75;;;;;;;;;;5030719;28;20045;-80
2023/02/10 13:06:04;;;;;;;40.65;17.55;;;;;;;;;;5044151;28;20198;-80
2023/02/10 13:08:33;;;;;;;45.80;19.33;;;;;;;;;;5051403;28;20136;-79
2023/02/10 13:11:05;;;;;;;42.40;19.02;;;;;;;;;;5054380;28;20063;-80
2023/02/10 13:13:32;;;;;;;48.53;19.25;;;;;;;;;;5050423;28;20088;-80
2023/02/10 13:16:09;;;;;;;47.80;19.35;;;;;;;;;;5034425;28;20247;-80
2023/02/10 13:18:43;;;;;;;47.15;19.45;;;;;;;;;;5036219;28;20045;-80
2023/02/10 13:21:19;;;;;;;45.97;18.90;;;;;;;;;;5042716;28;20080;-80
2023/02/10 13:23:52;;;;;;;52.25;20.65;;;;;;;;;;5043455;28;20073;-80
2023/02/10 13:26:33;;;;;;;48.60;19.13;;;;;;;;;;5048373;28;20114;-81
2023/02/10 13:29:15;;;;;;;48.90;19.40;;;;;;;;;;5052109;28;20064;-80
2023/02/10 13:32:00;;;;;;;45.20;19.42;;;;;;;;;;5039625;28;20060;-80
2023/02/10 13:34:40;;;;;;;53.95;19.30;;;;;;;;;;5023153;28;20052;-80
2023/02/10 13:37:22;;;;;;;47.20;18.63;;;;;;;;;;5043413;28;20083;-79
2023/02/10 13:39:51;;;;;;;48.53;18.98;;;;;;;;;;5054160;28;20061;-79
2023/02/10 13:42:24;;;;;;;49.22;19.50;;;;;;;;;;5039626;28;20087;-79
2023/02/10 13:45:08;;;;;;;47.20;19.30;;;;;;;;;;5026250;28;20073;-79
2023/02/10 13:47:47;;;;;;;48.17;19.02;;;;;;;;;;5038318;28;20128;-79
2023/02/10 13:50:13;;;;;;;46.55;19.48;;;;;;;;;;5055942;28;20065;-81
2023/02/10 13:52:51;;;;;;;46.17;18.67;;;;;;;;;;5043486;28;20033;-79
2023/02/10 13:55:17;;;;;;;50.10;19.05;;;;;;;;;;5045462;28;20051;-79
2023/02/10 13:57:56;;;;;;;51.35;19.17;;;;;;;;;;5016952;28;20056;-80
2023/02/10 14:00:24;;;;;;;45.72;18.70;;;;;;;;;;5037802;28;20059;-80
2023/02/10 14:03:02;;;;;;;50.97;19.92;;;;;;;;;;5053346;28;20152;-80
2023/02/10 14:05:34;;;;;;;40.78;17.25;;;;;;;;;;5039884;28;20045;-81
2023/02/10 14:08:11;;;;;;;42.60;18.45;;;;;;;;;;5041505;28;20053;-80
2023/02/10 14:10:38;;;;;;;42.63;18.13;;;;;;;;;;5044010;28;20041;-81
2023/02/10 14:13:25;;;;;;;50.38;19.70;;;;;;;;;;5024740;28;20052;-81
2023/02/10 14:15:57;;;;;;;41.65;17.70;;;;;;;;;;5036612;28;20084;-79
2023/02/10 14:18:25;;;;;;;45.95;18.10;;;;;;;;;;5043200;28;20059;-79
2023/02/10 14:21:06;;;;;;;47.40;18.33;;;;;;;;;;5043526;28;20041;-79
2023/02/10 14:23:34;;;;;;;41.90;17.17;;;;;;;;;;5018534;28;20119;-78
2023/02/10 14:26:05;;;;;;;42.72;17.42;;;;;;;;;;5039703;28;20045;-80
2023/02/10 14:28:35;;;;;;;50.83;19.15;;;;;;;;;;5028072;28;20049;-79
2023/02/10 14:31:23;;;;;;;56.35;17.63;;;;;;;;;;5028883;28;20346;-78
2023/02/10 14:33:54;;;;;;;42.63;17.17;;;;;;;;;;5034697;28;20072;-78